CAV4 weather

Mcbride Airport
Mcbride, British Columbia, Canada

Public forecast

Using degrees Celsius for public forecast. Weather courtesy of forecast.io.

METAR (pilot weather report)

Closest report is Blue River Airport, 78.9 nm (146.1 km) SSE. Retrieved 2019/09/17 01:00 UTC (21 minutes ago):

CYCP 170100Z VRB02KT 15SM FEW055TCU SCT080 SCT140 BKN220 14/09 A2974 RMK TCU2AC1AC1CI2 LAST STFD OBS/NEXT 171300Z SLP082 DENSITY ALT 2900FT

TAF (pilot weather forecast)

Closest forecast is Quesnel Airport, 85.9 nm (159.2 km) W. Retrieved 2019/09/17 01:00 UTC (21 minutes ago):

TAF CYQZ 170038Z 1701/1706 16010KT P6SM SCT040 TEMPO 1701/1703 P6SM -SHRA BKN040 FM170300 16005KT P6SM FEW040 BKN200 RMK FCST BASED ON AUTO OBS. NXT FCST WILL BE ISSUED AT 171145Z